sensor_id;sensor_type;location;lat;lon;timestamp;P1;durP1;ratioP1;P2;durP2;ratioP2
66966;SDS011;53900;51.468;-2.586;2023-02-23T00:00:33;3.97;;;2.03;;
66966;SDS011;53900;51.468;-2.586;2023-02-23T00:02:58;2.55;;;2.20;;
66966;SDS011;53900;51.468;-2.586;2023-02-23T00:05:28;3.45;;;2.30;;
66966;SDS011;53900;51.468;-2.586;2023-02-23T00:07:54;4.32;;;2.58;;
66966;SDS011;53900;51.468;-2.586;2023-02-23T00:10:19;2.92;;;2.30;;
66966;SDS011;53900;51.468;-2.586;2023-02-23T00:12:45;2.67;;;2.15;;
66966;SDS011;53900;51.468;-2.586;2023-02-23T00:15:10;5.43;;;2.55;;
66966;SDS011;53900;51.468;-2.586;2023-02-23T00:17:35;4.80;;;2.22;;
66966;SDS011;53900;51.468;-2.586;2023-02-23T00:20:02;3.53;;;2.47;;
66966;SDS011;53900;51.468;-2.586;2023-02-23T00:22:31;3.10;;;2.55;;
66966;SDS011;53900;51.468;-2.586;2023-02-23T00:24:57;3.53;;;2.13;;
66966;SDS011;53900;51.468;-2.586;2023-02-23T00:27:23;4.32;;;2.20;;
66966;SDS011;53900;51.468;-2.586;2023-02-23T00:29:49;4.07;;;2.63;;
66966;SDS011;53900;51.468;-2.586;2023-02-23T00:32:15;7.13;;;2.58;;
66966;SDS011;53900;51.468;-2.586;2023-02-23T00:34:44;3.47;;;2.50;;
66966;SDS011;53900;51.468;-2.586;2023-02-23T00:37:09;2.97;;;2.28;;
66966;SDS011;53900;51.468;-2.586;2023-02-23T00:39:36;5.50;;;2.28;;
66966;SDS011;53900;51.468;-2.586;2023-02-23T00:42:02;6.07;;;2.55;;
66966;SDS011;53900;51.468;-2.586;2023-02-23T00:44:28;3.42;;;2.30;;
66966;SDS011;53900;51.468;-2.586;2023-02-23T00:46:53;3.63;;;2.30;;
66966;SDS011;53900;51.468;-2.586;2023-02-23T00:49:19;3.60;;;2.35;;
66966;SDS011;53900;51.468;-2.586;2023-02-23T00:51:45;2.38;;;2.15;;
66966;SDS011;53900;51.468;-2.586;2023-02-23T00:54:11;4.90;;;2.40;;
66966;SDS011;53900;51.468;-2.586;2023-02-23T00:56:37;5.88;;;2.60;;
66966;SDS011;53900;51.468;-2.586;2023-02-23T00:59:02;2.38;;;2.17;;
66966;SDS011;53900;51.468;-2.586;2023-02-23T01:01:27;7.22;;;2.70;;
66966;SDS011;53900;51.468;-2.586;2023-02-23T01:03:52;3.95;;;2.50;;
66966;SDS011;53900;51.468;-2.586;2023-02-23T01:06:18;5.75;;;2.40;;
66966;SDS011;53900;51.468;-2.586;2023-02-23T01:08:44;3.72;;;2.55;;
66966;SDS011;53900;51.468;-2.586;2023-02-23T01:11:11;3.45;;;2.60;;
66966;SDS011;53900;51.468;-2.586;2023-02-23T01:13:37;4.30;;;2.40;;
66966;SDS011;53900;51.468;-2.586;2023-02-23T01:16:03;6.00;;;2.80;;
66966;SDS011;53900;51.468;-2.586;2023-02-23T01:18:29;3.70;;;2.60;;
66966;SDS011;53900;51.468;-2.586;2023-02-23T01:20:54;3.15;;;2.45;;
66966;SDS011;53900;51.468;-2.586;2023-02-23T01:23:19;3.38;;;2.35;;
66966;SDS011;53900;51.468;-2.586;2023-02-23T01:25:45;3.53;;;2.63;;
66966;SDS011;53900;51.468;-2.586;2023-02-23T01:28:11;2.50;;;2.08;;
66966;SDS011;53900;51.468;-2.586;2023-02-23T01:30:37;3.13;;;2.10;;
66966;SDS011;53900;51.468;-2.586;2023-02-23T01:33:03;2.45;;;1.80;;
66966;SDS011;53900;51.468;-2.586;2023-02-23T01:35:29;2.45;;;1.98;;
66966;SDS011;53900;51.468;-2.586;2023-02-23T01:37:54;4.30;;;1.80;;
66966;SDS011;53900;51.468;-2.586;2023-02-23T01:40:23;3.75;;;1.50;;
66966;SDS011;53900;51.468;-2.586;2023-02-23T01:43:15;5.15;;;1.20;;
66966;SDS011;53900;51.468;-2.586;2023-02-23T01:45:43;2.10;;;1.35;;
66966;SDS011;53900;51.468;-2.586;2023-02-23T01:48:10;2.92;;;1.65;;
66966;SDS011;53900;51.468;-2.586;2023-02-23T01:50:44;3.00;;;1.10;;
66966;SDS011;53900;51.468;-2.586;2023-02-23T01:53:10;5.68;;;1.40;;
66966;SDS011;53900;51.468;-2.586;2023-02-23T01:55:35;4.13;;;1.00;;
66966;SDS011;53900;51.468;-2.586;2023-02-23T01:58:06;2.42;;;1.05;;
66966;SDS011;53900;51.468;-2.586;2023-02-23T02:00:35;3.47;;;1.38;;
66966;SDS011;53900;51.468;-2.586;2023-02-23T02:03:01;2.70;;;1.00;;
66966;SDS011;53900;51.468;-2.586;2023-02-23T02:05:33;1.30;;;1.10;;
66966;SDS011;53900;51.468;-2.586;2023-02-23T02:07:59;2.53;;;1.00;;
66966;SDS011;53900;51.468;-2.586;2023-02-23T02:10:25;4.72;;;1.45;;
66966;SDS011;53900;51.468;-2.586;2023-02-23T02:13:10;3.33;;;1.30;;
66966;SDS011;53900;51.468;-2.586;2023-02-23T02:16:22;5.55;;;1.38;;
66966;SDS011;53900;51.468;-2.586;2023-02-23T02:21:13;1.63;;;1.20;;
66966;SDS011;53900;51.468;-2.586;2023-02-23T02:31:14;3.15;;;1.17;;
66966;SDS011;53900;51.468;-2.586;2023-02-23T02:36:37;3.75;;;1.27;;
66966;SDS011;53900;51.468;-2.586;2023-02-23T02:41:49;2.85;;;1.20;;
66966;SDS011;53900;51.468;-2.586;2023-02-23T02:44:20;5.30;;;1.48;;
66966;SDS011;53900;51.468;-2.586;2023-02-23T02:46:47;2.25;;;1.48;;
66966;SDS011;53900;51.468;-2.586;2023-02-23T02:54:17;7.05;;;1.20;;
66966;SDS011;53900;51.468;-2.586;2023-02-23T02:56:45;1.70;;;1.00;;
66966;SDS011;53900;51.468;-2.586;2023-02-23T02:59:15;3.92;;;1.52;;
66966;SDS011;53900;51.468;-2.586;2023-02-23T03:01:59;3.40;;;1.50;;
66966;SDS011;53900;51.468;-2.586;2023-02-23T03:04:43;3.63;;;1.15;;
66966;SDS011;53900;51.468;-2.586;2023-02-23T03:07:28;4.47;;;1.10;;
66966;SDS011;53900;51.468;-2.586;2023-02-23T03:10:14;4.18;;;1.35;;
66966;SDS011;53900;51.468;-2.586;2023-02-23T03:21:20;4.43;;;1.42;;
66966;SDS011;53900;51.468;-2.586;2023-02-23T03:26:54;2.55;;;1.10;;
66966;SDS011;53900;51.468;-2.586;2023-02-23T03:29:41;2.83;;;0.93;;
66966;SDS011;53900;51.468;-2.586;2023-02-23T03:32:32;4.85;;;1.27;;
66966;SDS011;53900;51.468;-2.586;2023-02-23T03:35:22;4.13;;;1.40;;
66966;SDS011;53900;51.468;-2.586;2023-02-23T03:38:10;2.33;;;1.00;;
66966;SDS011;53900;51.468;-2.586;2023-02-23T03:40:55;3.35;;;1.02;;
66966;SDS011;53900;51.468;-2.586;2023-02-23T03:43:42;4.10;;;1.20;;
66966;SDS011;53900;51.468;-2.586;2023-02-23T03:46:27;2.90;;;0.90;;
66966;SDS011;53900;51.468;-2.586;2023-02-23T03:49:12;1.48;;;0.70;;
66966;SDS011;53900;51.468;-2.586;2023-02-23T03:51:58;3.58;;;0.90;;
66966;SDS011;53900;51.468;-2.586;2023-02-23T03:54:45;2.38;;;0.75;;
66966;SDS011;53900;51.468;-2.586;2023-02-23T03:57:30;1.95;;;0.70;;
66966;SDS011;53900;51.468;-2.586;2023-02-23T04:00:17;1.98;;;0.75;;
66966;SDS011;53900;51.468;-2.586;2023-02-23T04:03:02;1.70;;;0.70;;
66966;SDS011;53900;51.468;-2.586;2023-02-23T04:05:48;5.20;;;0.90;;
66966;SDS011;53900;51.468;-2.586;2023-02-23T04:08:34;0.95;;;0.70;;
66966;SDS011;53900;51.468;-2.586;2023-02-23T04:11:39;2.42;;;0.75;;
66966;SDS011;53900;51.468;-2.586;2023-02-23T04:14:30;3.13;;;0.82;;
66966;SDS011;53900;51.468;-2.586;2023-02-23T04:16:58;1.77;;;1.00;;
66966;SDS011;53900;51.468;-2.586;2023-02-23T04:19:27;2.80;;;1.08;;
66966;SDS011;53900;51.468;-2.586;2023-02-23T04:21:53;2.78;;;0.60;;
66966;SDS011;53900;51.468;-2.586;2023-02-23T04:24:18;4.78;;;0.68;;
66966;SDS011;53900;51.468;-2.586;2023-02-23T04:26:43;5.20;;;1.35;;
66966;SDS011;53900;51.468;-2.586;2023-02-23T04:29:09;1.98;;;0.90;;
66966;SDS011;53900;51.468;-2.586;2023-02-23T04:31:35;2.60;;;0.73;;
66966;SDS011;53900;51.468;-2.586;2023-02-23T04:34:00;2.78;;;0.73;;
66966;SDS011;53900;51.468;-2.586;2023-02-23T04:36:25;5.10;;;1.20;;
66966;SDS011;53900;51.468;-2.586;2023-02-23T04:38:51;5.13;;;1.38;;
66966;SDS011;53900;51.468;-2.586;2023-02-23T04:41:17;2.00;;;0.90;;
66966;SDS011;53900;51.468;-2.586;2023-02-23T04:43:42;1.58;;;0.70;;
66966;SDS011;53900;51.468;-2.586;2023-02-23T04:46:08;1.70;;;0.88;;
66966;SDS011;53900;51.468;-2.586;2023-02-23T04:48:33;3.72;;;1.23;;
66966;SDS011;53900;51.468;-2.586;2023-02-23T04:50:58;2.50;;;1.25;;
66966;SDS011;53900;51.468;-2.586;2023-02-23T04:53:24;5.97;;;1.10;;
66966;SDS011;53900;51.468;-2.586;2023-02-23T04:55:51;3.33;;;1.20;;
66966;SDS011;53900;51.468;-2.586;2023-02-23T04:58:16;2.80;;;1.00;;
66966;SDS011;53900;51.468;-2.586;2023-02-23T05:00:41;5.85;;;1.33;;
66966;SDS011;53900;51.468;-2.586;2023-02-23T05:03:06;3.05;;;1.00;;
66966;SDS011;53900;51.468;-2.586;2023-02-23T05:05:31;2.22;;;1.25;;
66966;SDS011;53900;51.468;-2.586;2023-02-23T05:07:57;2.17;;;1.10;;
66966;SDS011;53900;51.468;-2.586;2023-02-23T05:10:22;4.20;;;1.38;;
66966;SDS011;53900;51.468;-2.586;2023-02-23T05:12:47;1.23;;;1.02;;
66966;SDS011;53900;51.468;-2.586;2023-02-23T05:15:13;3.95;;;1.23;;
66966;SDS011;53900;51.468;-2.586;2023-02-23T05:17:38;3.33;;;1.35;;
66966;SDS011;53900;51.468;-2.586;2023-02-23T05:20:06;3.58;;;1.20;;
66966;SDS011;53900;51.468;-2.586;2023-02-23T05:22:31;3.75;;;1.27;;
66966;SDS011;53900;51.468;-2.586;2023-02-23T05:24:56;3.72;;;1.52;;
66966;SDS011;53900;51.468;-2.586;2023-02-23T05:27:21;8.68;;;1.67;;
66966;SDS011;53900;51.468;-2.586;2023-02-23T05:29:47;5.32;;;1.80;;
66966;SDS011;53900;51.468;-2.586;2023-02-23T05:32:12;10.20;;;1.98;;
66966;SDS011;53900;51.468;-2.586;2023-02-23T05:34:37;8.43;;;2.30;;
66966;SDS011;53900;51.468;-2.586;2023-02-23T05:37:03;4.40;;;1.77;;
66966;SDS011;53900;51.468;-2.586;2023-02-23T05:39:28;3.10;;;1.83;;
66966;SDS011;53900;51.468;-2.586;2023-02-23T05:41:54;5.32;;;2.65;;
66966;SDS011;53900;51.468;-2.586;2023-02-23T05:44:19;7.95;;;2.40;;
66966;SDS011;53900;51.468;-2.586;2023-02-23T05:46:44;7.10;;;2.40;;
66966;SDS011;53900;51.468;-2.586;2023-02-23T05:49:10;6.43;;;2.50;;
66966;SDS011;53900;51.468;-2.586;2023-02-23T05:51:35;4.80;;;2.40;;
66966;SDS011;53900;51.468;-2.586;2023-02-23T05:54:01;5.00;;;2.30;;
66966;SDS011;53900;51.468;-2.586;2023-02-23T05:56:26;9.90;;;2.60;;
66966;SDS011;53900;51.468;-2.586;2023-02-23T05:58:53;8.02;;;2.78;;
66966;SDS011;53900;51.468;-2.586;2023-02-23T06:01:19;6.63;;;2.65;;
66966;SDS011;53900;51.468;-2.586;2023-02-23T06:03:44;6.28;;;2.50;;
66966;SDS011;53900;51.468;-2.586;2023-02-23T06:06:10;5.43;;;2.63;;
66966;SDS011;53900;51.468;-2.586;2023-02-23T06:08:35;5.40;;;2.80;;
66966;SDS011;53900;51.468;-2.586;2023-02-23T06:11:01;12.13;;;2.90;;
66966;SDS011;53900;51.468;-2.586;2023-02-23T06:13:26;6.80;;;2.63;;
66966;SDS011;53900;51.468;-2.586;2023-02-23T06:15:52;10.02;;;2.90;;
66966;SDS011;53900;51.468;-2.586;2023-02-23T06:18:17;9.88;;;2.95;;
66966;SDS011;53900;51.468;-2.586;2023-02-23T06:20:43;7.25;;;2.17;;
66966;SDS011;53900;51.468;-2.586;2023-02-23T06:23:09;5.07;;;2.50;;
66966;SDS011;53900;51.468;-2.586;2023-02-23T06:25:36;11.35;;;2.75;;
66966;SDS011;53900;51.468;-2.586;2023-02-23T06:28:01;8.80;;;2.20;;
66966;SDS011;53900;51.468;-2.586;2023-02-23T06:30:26;4.47;;;2.08;;
66966;SDS011;53900;51.468;-2.586;2023-02-23T06:32:51;7.55;;;2.65;;
66966;SDS011;53900;51.468;-2.586;2023-02-23T06:35:17;4.32;;;2.00;;
66966;SDS011;53900;51.468;-2.586;2023-02-23T06:37:42;7.00;;;2.30;;
66966;SDS011;53900;51.468;-2.586;2023-02-23T06:40:07;4.65;;;2.35;;
66966;SDS011;53900;51.468;-2.586;2023-02-23T06:42:33;3.95;;;2.03;;
66966;SDS011;53900;51.468;-2.586;2023-02-23T06:44:59;7.18;;;1.90;;
66966;SDS011;53900;51.468;-2.586;2023-02-23T06:47:25;5.07;;;2.20;;
66966;SDS011;53900;51.468;-2.586;2023-02-23T06:49:50;3.67;;;2.15;;
66966;SDS011;53900;51.468;-2.586;2023-02-23T06:52:15;4.60;;;2.33;;
66966;SDS011;53900;51.468;-2.586;2023-02-23T06:54:40;7.57;;;2.65;;
66966;SDS011;53900;51.468;-2.586;2023-02-23T06:57:08;8.50;;;2.35;;
66966;SDS011;53900;51.468;-2.586;2023-02-23T06:59:34;9.70;;;2.30;;
66966;SDS011;53900;51.468;-2.586;2023-02-23T07:02:00;4.80;;;2.08;;
66966;SDS011;53900;51.468;-2.586;2023-02-23T07:04:26;7.43;;;2.20;;
66966;SDS011;53900;51.468;-2.586;2023-02-23T07:06:51;4.05;;;2.17;;
66966;SDS011;53900;51.468;-2.586;2023-02-23T07:09:16;6.60;;;2.58;;
66966;SDS011;53900;51.468;-2.586;2023-02-23T07:11:42;4.32;;;2.42;;
66966;SDS011;53900;51.468;-2.586;2023-02-23T07:14:09;7.15;;;2.00;;
66966;SDS011;53900;51.468;-2.586;2023-02-23T07:16:34;9.23;;;2.25;;
66966;SDS011;53900;51.468;-2.586;2023-02-23T07:19:00;11.43;;;2.67;;
66966;SDS011;53900;51.468;-2.586;2023-02-23T07:21:26;8.65;;;2.70;;
66966;SDS011;53900;51.468;-2.586;2023-02-23T07:23:51;10.15;;;2.72;;
66966;SDS011;53900;51.468;-2.586;2023-02-23T07:26:17;7.25;;;2.28;;
66966;SDS011;53900;51.468;-2.586;2023-02-23T07:28:42;11.90;;;2.53;;
66966;SDS011;53900;51.468;-2.586;2023-02-23T07:31:08;7.57;;;2.22;;
66966;SDS011;53900;51.468;-2.586;2023-02-23T07:33:33;8.18;;;2.25;;
66966;SDS011;53900;51.468;-2.586;2023-02-23T07:35:58;6.60;;;2.28;;
66966;SDS011;53900;51.468;-2.586;2023-02-23T07:38:23;10.30;;;3.25;;
66966;SDS011;53900;51.468;-2.586;2023-02-23T07:40:49;7.18;;;1.85;;
66966;SDS011;53900;51.468;-2.586;2023-02-23T07:43:14;7.90;;;2.63;;
66966;SDS011;53900;51.468;-2.586;2023-02-23T07:45:39;11.50;;;2.17;;
66966;SDS011;53900;51.468;-2.586;2023-02-23T07:48:05;10.32;;;2.83;;
66966;SDS011;53900;51.468;-2.586;2023-02-23T07:50:31;4.55;;;2.00;;
66966;SDS011;53900;51.468;-2.586;2023-02-23T07:52:56;5.60;;;1.88;;
66966;SDS011;53900;51.468;-2.586;2023-02-23T07:55:21;8.38;;;2.60;;
66966;SDS011;53900;51.468;-2.586;2023-02-23T07:57:46;11.23;;;2.03;;
66966;SDS011;53900;51.468;-2.586;2023-02-23T08:00:12;8.88;;;2.97;;
66966;SDS011;53900;51.468;-2.586;2023-02-23T08:02:37;13.60;;;1.80;;
66966;SDS011;53900;51.468;-2.586;2023-02-23T08:05:02;8.18;;;2.08;;
66966;SDS011;53900;51.468;-2.586;2023-02-23T08:07:27;10.90;;;2.10;;
66966;SDS011;53900;51.468;-2.586;2023-02-23T08:09:55;6.68;;;1.90;;
66966;SDS011;53900;51.468;-2.586;2023-02-23T08:12:20;11.00;;;2.33;;
66966;SDS011;53900;51.468;-2.586;2023-02-23T08:14:45;8.23;;;1.85;;
66966;SDS011;53900;51.468;-2.586;2023-02-23T08:17:11;8.13;;;2.10;;
66966;SDS011;53900;51.468;-2.586;2023-02-23T08:19:36;8.38;;;1.60;;
66966;SDS011;53900;51.468;-2.586;2023-02-23T08:22:02;5.85;;;1.67;;
66966;SDS011;53900;51.468;-2.586;2023-02-23T08:24:27;6.57;;;1.50;;
66966;SDS011;53900;51.468;-2.586;2023-02-23T08:26:54;6.03;;;1.35;;
66966;SDS011;53900;51.468;-2.586;2023-02-23T08:29:20;8.88;;;1.88;;
66966;SDS011;53900;51.468;-2.586;2023-02-23T08:31:45;9.13;;;1.98;;
66966;SDS011;53900;51.468;-2.586;2023-02-23T08:34:11;9.27;;;1.50;;
66966;SDS011;53900;51.468;-2.586;2023-02-23T08:36:36;8.73;;;1.83;;
66966;SDS011;53900;51.468;-2.586;2023-02-23T08:39:01;8.82;;;1.92;;
66966;SDS011;53900;51.468;-2.586;2023-02-23T08:41:27;10.90;;;2.15;;
66966;SDS011;53900;51.468;-2.586;2023-02-23T08:43:52;11.25;;;1.77;;
66966;SDS011;53900;51.468;-2.586;2023-02-23T08:46:17;7.07;;;1.40;;
66966;SDS011;53900;51.468;-2.586;2023-02-23T08:48:44;7.22;;;1.77;;
66966;SDS011;53900;51.468;-2.586;2023-02-23T08:51:10;9.23;;;1.80;;
66966;SDS011;53900;51.468;-2.586;2023-02-23T08:53:36;9.43;;;2.00;;
66966;SDS011;53900;51.468;-2.586;2023-02-23T08:56:02;23.65;;;2.28;;
66966;SDS011;53900;51.468;-2.586;2023-02-23T08:58:28;15.15;;;2.28;;
66966;SDS011;53900;51.468;-2.586;2023-02-23T09:00:57;8.52;;;1.80;;
66966;SDS011;53900;51.468;-2.586;2023-02-23T09:03:23;7.45;;;1.95;;
66966;SDS011;53900;51.468;-2.586;2023-02-23T09:05:50;11.90;;;1.92;;
66966;SDS011;53900;51.468;-2.586;2023-02-23T09:08:15;13.70;;;2.35;;
66966;SDS011;53900;51.468;-2.586;2023-02-23T09:10:40;8.95;;;2.33;;
66966;SDS011;53900;51.468;-2.586;2023-02-23T09:13:08;12.13;;;1.80;;
66966;SDS011;53900;51.468;-2.586;2023-02-23T09:15:33;10.18;;;1.60;;
66966;SDS011;53900;51.468;-2.586;2023-02-23T09:17:59;12.32;;;1.73;;
66966;SDS011;53900;51.468;-2.586;2023-02-23T09:20:25;16.40;;;2.38;;
66966;SDS011;53900;51.468;-2.586;2023-02-23T09:22:50;14.27;;;1.90;;
66966;SDS011;53900;51.468;-2.586;2023-02-23T09:25:16;16.88;;;2.83;;
66966;SDS011;53900;51.468;-2.586;2023-02-23T09:27:46;15.25;;;2.45;;
66966;SDS011;53900;51.468;-2.586;2023-02-23T09:30:11;16.55;;;2.15;;
66966;SDS011;53900;51.468;-2.586;2023-02-23T09:32:42;13.65;;;1.80;;
66966;SDS011;53900;51.468;-2.586;2023-02-23T09:35:08;11.45;;;1.98;;
66966;SDS011;53900;51.468;-2.586;2023-02-23T09:37:33;11.60;;;2.20;;
66966;SDS011;53900;51.468;-2.586;2023-02-23T09:39:58;11.93;;;2.17;;
66966;SDS011;53900;51.468;-2.586;2023-02-23T09:42:38;14.10;;;2.33;;
66966;SDS011;53900;51.468;-2.586;2023-02-23T09:45:11;13.38;;;1.88;;
66966;SDS011;53900;51.468;-2.586;2023-02-23T09:47:46;12.05;;;2.17;;
66966;SDS011;53900;51.468;-2.586;2023-02-23T09:50:15;10.05;;;2.20;;
66966;SDS011;53900;51.468;-2.586;2023-02-23T09:52:43;15.80;;;3.03;;
66966;SDS011;53900;51.468;-2.586;2023-02-23T09:55:12;21.02;;;2.70;;
66966;SDS011;53900;51.468;-2.586;2023-02-23T09:57:38;15.40;;;2.25;;
66966;SDS011;53900;51.468;-2.586;2023-02-23T10:00:24;11.63;;;2.50;;
66966;SDS011;53900;51.468;-2.586;2023-02-23T10:05:16;16.33;;;2.47;;
66966;SDS011;53900;51.468;-2.586;2023-02-23T10:07:43;13.43;;;1.98;;
66966;SDS011;53900;51.468;-2.586;2023-02-23T10:10:20;17.48;;;2.15;;
66966;SDS011;53900;51.468;-2.586;2023-02-23T10:17:59;10.55;;;2.05;;
66966;SDS011;53900;51.468;-2.586;2023-02-23T10:23:07;19.42;;;3.17;;
66966;SDS011;53900;51.468;-2.586;2023-02-23T10:25:37;10.07;;;2.58;;
66966;SDS011;53900;51.468;-2.586;2023-02-23T10:28:04;10.95;;;2.05;;
66966;SDS011;53900;51.468;-2.586;2023-02-23T10:30:31;8.82;;;1.98;;
66966;SDS011;53900;51.468;-2.586;2023-02-23T10:35:22;11.60;;;2.00;;
66966;SDS011;53900;51.468;-2.586;2023-02-23T10:37:48;10.38;;;2.45;;
66966;SDS011;53900;51.468;-2.586;2023-02-23T10:40:15;8.93;;;1.98;;
66966;SDS011;53900;51.468;-2.586;2023-02-23T10:42:41;9.48;;;2.38;;
66966;SDS011;53900;51.468;-2.586;2023-02-23T10:45:13;14.80;;;2.50;;
66966;SDS011;53900;51.468;-2.586;2023-02-23T10:47:42;8.20;;;1.95;;
66966;SDS011;53900;51.468;-2.586;2023-02-23T10:50:08;10.98;;;2.38;;
66966;SDS011;53900;51.468;-2.586;2023-02-23T10:52:37;9.65;;;2.00;;
66966;SDS011;53900;51.468;-2.586;2023-02-23T10:55:05;11.32;;;2.35;;
66966;SDS011;53900;51.468;-2.586;2023-02-23T10:57:34;12.75;;;2.08;;
66966;SDS011;53900;51.468;-2.586;2023-02-23T11:02:27;13.82;;;2.33;;
66966;SDS011;53900;51.468;-2.586;2023-02-23T11:04:56;13.13;;;2.95;;
66966;SDS011;53900;51.468;-2.586;2023-02-23T11:09:46;13.40;;;2.10;;
66966;SDS011;53900;51.468;-2.586;2023-02-23T11:12:22;12.88;;;2.25;;
66966;SDS011;53900;51.468;-2.586;2023-02-23T11:14:49;11.55;;;2.20;;
66966;SDS011;53900;51.468;-2.586;2023-02-23T11:19:56;18.88;;;2.10;;
66966;SDS011;53900;51.468;-2.586;2023-02-23T11:24:47;13.30;;;2.38;;
66966;SDS011;53900;51.468;-2.586;2023-02-23T11:27:20;12.05;;;2.03;;
66966;SDS011;53900;51.468;-2.586;2023-02-23T11:29:47;8.20;;;1.83;;
66966;SDS011;53900;51.468;-2.586;2023-02-23T11:32:14;9.52;;;2.10;;
66966;SDS011;53900;51.468;-2.586;2023-02-23T11:34:40;14.10;;;2.20;;
66966;SDS011;53900;51.468;-2.586;2023-02-23T11:42:21;7.00;;;2.22;;
66966;SDS011;53900;51.468;-2.586;2023-02-23T11:47:31;7.97;;;1.70;;
66966;SDS011;53900;51.468;-2.586;2023-02-23T11:49:57;8.57;;;1.70;;
66966;SDS011;53900;51.468;-2.586;2023-02-23T11:52:23;7.03;;;1.38;;
66966;SDS011;53900;51.468;-2.586;2023-02-23T11:54:59;15.93;;;1.92;;
66966;SDS011;53900;51.468;-2.586;2023-02-23T11:57:27;7.50;;;1.70;;
66966;SDS011;53900;51.468;-2.586;2023-02-23T11:59:53;18.92;;;3.85;;
66966;SDS011;53900;51.468;-2.586;2023-02-23T12:02:28;13.77;;;2.08;;
66966;SDS011;53900;51.468;-2.586;2023-02-23T12:05:05;9.23;;;1.70;;
66966;SDS011;53900;51.468;-2.586;2023-02-23T12:07:37;7.40;;;1.63;;
66966;SDS011;53900;51.468;-2.586;2023-02-23T12:15:21;14.10;;;2.72;;
66966;SDS011;53900;51.468;-2.586;2023-02-23T12:17:48;9.70;;;1.90;;
66966;SDS011;53900;51.468;-2.586;2023-02-23T12:20:17;8.88;;;1.83;;
66966;SDS011;53900;51.468;-2.586;2023-02-23T12:22:46;8.77;;;1.80;;
66966;SDS011;53900;51.468;-2.586;2023-02-23T12:33:14;6.47;;;1.65;;
66966;SDS011;53900;51.468;-2.586;2023-02-23T12:35:52;11.13;;;1.85;;
66966;SDS011;53900;51.468;-2.586;2023-02-23T12:38:32;11.20;;;2.33;;
66966;SDS011;53900;51.468;-2.586;2023-02-23T12:41:23;9.52;;;2.28;;
66966;SDS011;53900;51.468;-2.586;2023-02-23T12:43:49;14.95;;;2.30;;
66966;SDS011;53900;51.468;-2.586;2023-02-23T12:46:26;10.25;;;2.58;;
66966;SDS011;53900;51.468;-2.586;2023-02-23T12:51:20;9.18;;;2.10;;
66966;SDS011;53900;51.468;-2.586;2023-02-23T12:53:48;13.40;;;2.20;;
66966;SDS011;53900;51.468;-2.586;2023-02-23T13:06:32;14.48;;;2.25;;
66966;SDS011;53900;51.468;-2.586;2023-02-23T13:14:08;8.43;;;1.77;;
66966;SDS011;53900;51.468;-2.586;2023-02-23T13:16:38;8.23;;;1.67;;
66966;SDS011;53900;51.468;-2.586;2023-02-23T13:19:12;10.63;;;1.58;;
66966;SDS011;53900;51.468;-2.586;2023-02-23T13:21:42;11.10;;;1.80;;
66966;SDS011;53900;51.468;-2.586;2023-02-23T13:24:13;9.73;;;1.90;;
66966;SDS011;53900;51.468;-2.586;2023-02-23T13:26:54;13.40;;;2.33;;
66966;SDS011;53900;51.468;-2.586;2023-02-23T13:31:48;13.40;;;1.95;;
66966;SDS011;53900;51.468;-2.586;2023-02-23T13:34:47;14.77;;;2.50;;
66966;SDS011;53900;51.468;-2.586;2023-02-23T13:37:05;10.07;;;2.28;;
66966;SDS011;53900;51.468;-2.586;2023-02-23T13:40:06;7.72;;;1.70;;
66966;SDS011;53900;51.468;-2.586;2023-02-23T13:53:41;7.07;;;1.95;;
66966;SDS011;53900;51.468;-2.586;2023-02-23T13:56:08;9.02;;;1.98;;
66966;SDS011;53900;51.468;-2.586;2023-02-23T13:58:34;13.30;;;1.95;;
66966;SDS011;53900;51.468;-2.586;2023-02-23T14:01:43;10.77;;;2.00;;
66966;SDS011;53900;51.468;-2.586;2023-02-23T14:04:04;10.55;;;2.00;;
66966;SDS011;53900;51.468;-2.586;2023-02-23T14:06:36;9.90;;;1.88;;
66966;SDS011;53900;51.468;-2.586;2023-02-23T14:11:36;8.45;;;2.28;;
66966;SDS011;53900;51.468;-2.586;2023-02-23T14:14:02;12.50;;;1.95;;
66966;SDS011;53900;51.468;-2.586;2023-02-23T14:16:28;7.68;;;1.83;;
66966;SDS011;53900;51.468;-2.586;2023-02-23T14:19:08;5.10;;;1.55;;
66966;SDS011;53900;51.468;-2.586;2023-02-23T14:24:12;11.35;;;1.80;;
66966;SDS011;53900;51.468;-2.586;2023-02-23T14:26:42;8.68;;;1.92;;
66966;SDS011;53900;51.468;-2.586;2023-02-23T14:31:33;7.78;;;1.52;;
66966;SDS011;53900;51.468;-2.586;2023-02-23T14:33:59;7.30;;;1.58;;
66966;SDS011;53900;51.468;-2.586;2023-02-23T14:38:50;8.63;;;1.55;;
66966;SDS011;53900;51.468;-2.586;2023-02-23T14:41:28;5.43;;;1.48;;
66966;SDS011;53900;51.468;-2.586;2023-02-23T14:46:20;13.35;;;1.65;;
66966;SDS011;53900;51.468;-2.586;2023-02-23T14:48:58;7.07;;;1.80;;
66966;SDS011;53900;51.468;-2.586;2023-02-23T14:51:40;7.05;;;1.38;;
66966;SDS011;53900;51.468;-2.586;2023-02-23T14:54:09;9.43;;;1.45;;
66966;SDS011;53900;51.468;-2.586;2023-02-23T14:56:35;6.38;;;1.50;;
66966;SDS011;53900;51.468;-2.586;2023-02-23T14:59:13;4.85;;;1.27;;
66966;SDS011;53900;51.468;-2.586;2023-02-23T15:01:41;6.03;;;1.35;;
66966;SDS011;53900;51.468;-2.586;2023-02-23T15:06:32;9.35;;;1.55;;
66966;SDS011;53900;51.468;-2.586;2023-02-23T15:08:57;9.95;;;2.03;;
66966;SDS011;53900;51.468;-2.586;2023-02-23T15:11:22;6.97;;;1.60;;
66966;SDS011;53900;51.468;-2.586;2023-02-23T15:13:48;8.27;;;2.03;;
66966;SDS011;53900;51.468;-2.586;2023-02-23T15:16:20;7.90;;;1.60;;
66966;SDS011;53900;51.468;-2.586;2023-02-23T15:18:47;11.25;;;1.70;;
66966;SDS011;53900;51.468;-2.586;2023-02-23T15:21:16;8.73;;;1.55;;
66966;SDS011;53900;51.468;-2.586;2023-02-23T15:23:47;6.55;;;2.03;;
66966;SDS011;53900;51.468;-2.586;2023-02-23T15:26:26;8.00;;;1.48;;
66966;SDS011;53900;51.468;-2.586;2023-02-23T15:29:01;11.55;;;1.90;;
66966;SDS011;53900;51.468;-2.586;2023-02-23T15:31:29;13.00;;;2.03;;
66966;SDS011;53900;51.468;-2.586;2023-02-23T15:33:54;9.38;;;1.83;;
66966;SDS011;53900;51.468;-2.586;2023-02-23T15:36:26;14.32;;;2.33;;
66966;SDS011;53900;51.468;-2.586;2023-02-23T15:38:53;13.77;;;2.00;;
66966;SDS011;53900;51.468;-2.586;2023-02-23T15:41:27;10.48;;;1.90;;
66966;SDS011;53900;51.468;-2.586;2023-02-23T15:43:53;10.82;;;1.73;;
66966;SDS011;53900;51.468;-2.586;2023-02-23T15:46:24;10.70;;;1.90;;
66966;SDS011;53900;51.468;-2.586;2023-02-23T15:48:51;9.80;;;1.85;;
66966;SDS011;53900;51.468;-2.586;2023-02-23T15:53:49;10.30;;;2.45;;
66966;SDS011;53900;51.468;-2.586;2023-02-23T15:56:15;21.95;;;1.98;;
66966;SDS011;53900;51.468;-2.586;2023-02-23T15:58:48;10.07;;;1.80;;
66966;SDS011;53900;51.468;-2.586;2023-02-23T16:01:19;12.43;;;2.05;;
66966;SDS011;53900;51.468;-2.586;2023-02-23T16:04:04;10.23;;;2.10;;
66966;SDS011;53900;51.468;-2.586;2023-02-23T16:06:34;12.65;;;1.92;;
66966;SDS011;53900;51.468;-2.586;2023-02-23T16:09:13;7.95;;;1.63;;
66966;SDS011;53900;51.468;-2.586;2023-02-23T16:11:46;6.65;;;1.60;;
66966;SDS011;53900;51.468;-2.586;2023-02-23T16:14:15;9.60;;;2.33;;
66966;SDS011;53900;51.468;-2.586;2023-02-23T16:16:41;10.45;;;1.80;;
66966;SDS011;53900;51.468;-2.586;2023-02-23T16:19:10;9.15;;;1.80;;
66966;SDS011;53900;51.468;-2.586;2023-02-23T16:21:37;9.52;;;1.73;;
66966;SDS011;53900;51.468;-2.586;2023-02-23T16:24:08;12.40;;;1.83;;
66966;SDS011;53900;51.468;-2.586;2023-02-23T16:26:36;9.57;;;1.67;;
66966;SDS011;53900;51.468;-2.586;2023-02-23T16:29:05;10.00;;;1.88;;
66966;SDS011;53900;51.468;-2.586;2023-02-23T16:31:40;10.02;;;2.15;;
66966;SDS011;53900;51.468;-2.586;2023-02-23T16:34:17;5.72;;;1.25;;
66966;SDS011;53900;51.468;-2.586;2023-02-23T16:36:43;14.70;;;2.35;;
66966;SDS011;53900;51.468;-2.586;2023-02-23T16:39:13;10.15;;;1.70;;
66966;SDS011;53900;51.468;-2.586;2023-02-23T16:41:41;7.38;;;1.15;;
66966;SDS011;53900;51.468;-2.586;2023-02-23T16:44:10;8.38;;;1.85;;
66966;SDS011;53900;51.468;-2.586;2023-02-23T16:49:17;13.75;;;2.03;;